createdAt,value
2019-06-10T00:00:22.930Z,64.28
2019-06-10T00:01:22.962Z,64.41
2019-06-10T00:02:22.911Z,64.72
2019-06-10T00:03:22.910Z,64.51
2019-06-10T00:04:22.888Z,64.51
2019-06-10T00:05:22.874Z,64.58
2019-06-10T00:06:22.910Z,64.92
2019-06-10T00:07:22.885Z,64.81
2019-06-10T00:08:22.887Z,64.92
2019-06-10T00:09:22.832Z,65.01
2019-06-10T00:10:22.818Z,64.92
2019-06-10T00:11:22.857Z,64.92
2019-06-10T00:12:22.842Z,64.81
2019-06-10T00:13:22.831Z,64.69
2019-06-10T00:14:22.779Z,64.41
2019-06-10T00:15:22.766Z,64.18
2019-06-10T00:16:22.752Z,64.58
2019-06-10T00:17:22.743Z,64.38
2019-06-10T00:18:38.388Z,64.38
2019-06-10T00:19:23.772Z,64.58
2019-06-10T00:20:22.725Z,64.48
2019-06-10T00:21:22.754Z,64.28
2019-06-10T00:22:22.693Z,64.58
2019-06-10T00:23:22.680Z,64.28
2019-06-10T00:24:22.669Z,64.48
2019-06-10T00:25:22.668Z,64.48
2019-06-10T00:26:22.702Z,64.58
2019-06-10T00:27:22.632Z,64.58
2019-06-10T00:28:22.624Z,63.98
2019-06-10T00:29:22.612Z,64.07
2019-06-10T00:30:22.598Z,63.87
2019-06-10T00:31:22.587Z,63.78
2019-06-10T00:32:22.648Z,63.47
2019-06-10T00:33:22.572Z,63.78
2019-06-10T00:34:22.555Z,64.38
2019-06-10T00:35:22.545Z,64.28
2019-06-10T00:36:22.535Z,64.48
2019-06-10T00:37:22.540Z,64.07
2019-06-10T00:38:22.555Z,64.07
2019-06-10T00:39:22.503Z,63.27
2019-06-10T00:40:22.538Z,64.07
2019-06-10T00:41:22.482Z,64.18
2019-06-10T00:42:22.475Z,63.98
2019-06-10T00:43:22.476Z,64.38
2019-06-10T00:44:22.494Z,63.37
2019-06-10T00:45:22.439Z,64.28
2019-06-10T00:46:22.434Z,63.57
2019-06-10T00:47:22.412Z,64.28
2019-06-10T00:48:28.794Z,64.38
2019-06-10T00:49:23.436Z,63.47
2019-06-10T00:50:22.383Z,63.57
2019-06-10T00:51:22.371Z,64.28
2019-06-10T00:52:22.361Z,63.57
2019-06-10T00:53:22.394Z,64.28
2019-06-10T00:54:22.340Z,64.11
2019-06-10T00:55:22.332Z,64.11
2019-06-10T00:56:22.326Z,64.01
2019-06-10T00:57:22.362Z,64.11
2019-06-10T00:58:22.297Z,64.11
2019-06-10T00:59:22.309Z,63.90
2019-06-10T01:00:25.690Z,64.11
2019-06-10T01:01:22.257Z,64.64
2019-06-10T01:02:22.301Z,64.54
2019-06-10T01:03:22.243Z,64.54
2019-06-10T01:04:22.231Z,64.34
2019-06-10T01:05:22.216Z,64.44
2019-06-10T01:06:22.209Z,64.44
2019-06-10T01:07:22.241Z,64.44
2019-06-10T01:08:22.183Z,64.24
2019-06-10T01:09:22.176Z,64.04
2019-06-10T01:10:22.175Z,64.34
2019-06-10T01:11:26.906Z,64.54
2019-06-10T01:12:23.183Z,64.44
2019-06-10T01:13:22.126Z,64.44
2019-06-10T01:14:22.181Z,64.54
2019-06-10T01:15:22.114Z,64.44
2019-06-10T01:16:22.138Z,64.34
2019-06-10T01:17:22.084Z,64.78
2019-06-10T01:18:34.832Z,64.58
2019-06-10T01:19:23.074Z,64.78
2019-06-10T01:20:22.054Z,64.58
2019-06-10T01:21:22.129Z,64.54
2019-06-10T01:22:22.027Z,64.34
2019-06-10T01:23:22.048Z,64.58
2019-06-10T01:24:22.482Z,64.58
2019-06-10T01:25:22.016Z,64.58
2019-06-10T01:26:22.048Z,64.78
2019-06-10T01:27:21.986Z,64.98
2019-06-10T01:28:22.289Z,64.90
2019-06-10T01:29:21.955Z,65.08
2019-06-10T01:30:26.447Z,65.28
2019-06-10T01:31:24.334Z,64.98
2019-06-10T01:32:21.930Z,64.98
2019-06-10T01:33:21.917Z,65.08
2019-06-10T01:34:21.950Z,65.21
2019-06-10T01:35:21.886Z,64.98
2019-06-10T01:36:21.893Z,65.21
2019-06-10T01:37:22.079Z,65.51
2019-06-10T01:38:21.854Z,65.61
2019-06-10T01:39:22.650Z,65.41
2019-06-10T01:40:21.879Z,65.71
2019-06-10T01:41:21.838Z,65.71
2019-06-10T01:42:21.814Z,65.81
2019-06-10T01:43:21.801Z,65.71
2019-06-10T01:44:22.244Z,65.81
2019-06-10T01:45:21.820Z,65.21
2019-06-10T01:46:21.826Z,65.61
2019-06-10T01:47:21.764Z,65.71
2019-06-10T01:48:21.756Z,65.51
2019-06-10T01:49:21.731Z,65.51
2019-06-10T01:50:21.954Z,65.41
2019-06-10T01:51:21.727Z,65.21
2019-06-10T01:52:21.751Z,65.41
2019-06-10T01:53:22.210Z,65.61
2019-06-10T01:54:21.678Z,65.81
2019-06-10T01:55:22.017Z,66.32
2019-06-10T01:56:21.792Z,66.22
2019-06-10T01:57:22.144Z,66.35
2019-06-10T01:58:23.622Z,66.45
2019-06-10T01:59:22.241Z,66.35
2019-06-10T02:00:25.797Z,66.05
2019-06-10T02:01:23.374Z,66.05
2019-06-10T02:02:23.806Z,65.95
2019-06-10T02:03:24.003Z,65.54
2019-06-10T02:04:22.214Z,65.24
2019-06-10T02:05:22.955Z,65.84
2019-06-10T02:06:25.331Z,66.05
2019-06-10T02:07:22.991Z,66.35
2019-06-10T02:08:22.337Z,66.15
2019-06-10T02:09:23.203Z,65.84
2019-06-10T02:10:22.994Z,66.35
2019-06-10T02:11:23.494Z,66.45
2019-06-10T02:12:24.249Z,66.45
2019-06-10T02:13:22.083Z,66.45
2019-06-10T02:14:24.211Z,66.45
2019-06-10T02:15:22.767Z,65.84
2019-06-10T02:16:24.036Z,66.05
2019-06-10T02:17:23.919Z,66.45
2019-06-10T02:18:22.495Z,65.61
2019-06-10T02:19:22.975Z,65.31
2019-06-10T02:20:23.804Z,64.90
2019-06-10T02:21:24.331Z,65.31
2019-06-10T02:22:24.348Z,65.01
2019-06-10T02:23:23.239Z,65.31
2019-06-10T02:24:23.144Z,65.11
2019-06-10T02:25:22.913Z,65.51
2019-06-10T02:26:23.245Z,65.84
2019-06-10T02:27:21.948Z,66.15
2019-06-10T02:28:22.052Z,66.15
2019-06-10T02:29:22.223Z,66.15
2019-06-10T02:30:35.810Z,66.15
2019-06-10T02:31:30.235Z,66.35
2019-06-10T02:32:30.955Z,65.95
2019-06-10T02:33:30.110Z,65.95
2019-06-10T02:34:27.017Z,65.84
2019-06-10T02:35:31.648Z,65.95
2019-06-10T02:36:30.476Z,65.44
2019-06-10T02:37:30.746Z,65.64
2019-06-10T02:38:32.770Z,66.05
2019-06-10T02:39:28.144Z,65.95
2019-06-10T02:40:31.081Z,65.64
2019-06-10T02:41:31.190Z,65.84
2019-06-10T02:42:30.147Z,65.51
2019-06-10T02:43:31.731Z,65.41
2019-06-10T02:44:32.236Z,65.71
2019-06-10T02:45:30.749Z,64.61
2019-06-10T02:46:30.727Z,65.51
2019-06-10T02:47:27.773Z,65.61
2019-06-10T02:48:29.697Z,65.58
2019-06-10T02:49:44.508Z,65.18
2019-06-10T02:50:31.522Z,64.90
2019-06-10T02:51:28.132Z,65.01
2019-06-10T02:52:30.707Z,65.31
2019-06-10T02:53:29.924Z,65.21
2019-06-10T02:54:28.800Z,65.51
2019-06-10T02:55:30.032Z,65.61
2019-06-10T02:56:29.899Z,65.61
2019-06-10T02:57:29.567Z,65.92
2019-06-10T02:58:30.420Z,65.61
2019-06-10T02:59:27.400Z,65.51
2019-06-10T03:00:34.188Z,65.11
2019-06-10T03:01:28.328Z,65.08
2019-06-10T03:02:23.814Z,65.21
2019-06-10T03:03:33.305Z,64.98
2019-06-10T03:04:26.692Z,65.41
2019-06-10T03:05:27.014Z,65.41
2019-06-10T03:06:30.102Z,65.51
2019-06-10T03:07:26.760Z,65.81
2019-06-10T03:08:26.599Z,65.41
2019-06-10T03:09:26.601Z,65.48
2019-06-10T03:10:29.510Z,65.11
2019-06-10T03:11:27.347Z,65.41
2019-06-10T03:12:24.267Z,65.08
2019-06-10T03:13:23.653Z,65.38
2019-06-10T03:14:22.649Z,64.47
2019-06-10T03:15:24.493Z,65.08
2019-06-10T03:16:23.988Z,65.08
2019-06-10T03:17:23.190Z,64.78
2019-06-10T03:18:21.740Z,65.18
2019-06-10T03:19:40.919Z,65.68
2019-06-10T03:20:24.342Z,65.68
2019-06-10T03:21:23.071Z,65.58
2019-06-10T03:22:23.002Z,65.68
2019-06-10T03:23:23.278Z,65.58
2019-06-10T03:24:22.364Z,65.48
2019-06-10T03:25:23.008Z,66.49
2019-06-10T03:26:23.911Z,66.19
2019-06-10T03:27:23.157Z,66.39
2019-06-10T03:28:23.908Z,66.49
2019-06-10T03:29:23.301Z,66.39
2019-06-10T03:30:30.687Z,67.10
2019-06-10T03:31:28.280Z,66.99
2019-06-10T03:32:25.020Z,66.42
2019-06-10T03:33:27.661Z,67.19
2019-06-10T03:34:28.297Z,67.33
2019-06-10T03:35:23.842Z,67.33
2019-06-10T03:36:22.704Z,67.10
2019-06-10T03:37:22.880Z,67.30
2019-06-10T03:38:23.086Z,67.30
2019-06-10T03:39:21.396Z,67.73
2019-06-10T03:40:21.244Z,67.50
2019-06-10T03:41:22.903Z,68.30
2019-06-10T03:42:21.379Z,68.13
2019-06-10T03:43:21.414Z,68.13
2019-06-10T03:44:23.500Z,68.64
2019-06-10T03:45:21.805Z,69.24
2019-06-10T03:46:23.738Z,69.04
2019-06-10T03:47:21.779Z,69.38
2019-06-10T03:48:21.742Z,69.35
2019-06-10T03:49:21.870Z,69.15
2019-06-10T03:50:23.925Z,68.84
2019-06-10T03:51:21.840Z,68.95
2019-06-10T03:52:23.524Z,68.84
2019-06-10T03:53:21.917Z,69.04
2019-06-10T03:54:24.395Z,69.15
2019-06-10T03:55:24.862Z,69.45
2019-06-10T03:56:23.235Z,68.95
2019-06-10T03:57:23.753Z,68.95
2019-06-10T03:58:21.448Z,69.24
2019-06-10T03:59:23.599Z,69.15
2019-06-10T04:00:21.937Z,69.24
2019-06-10T04:01:21.978Z,68.84
2019-06-10T04:02:23.463Z,69.04
2019-06-10T04:03:21.982Z,68.95
2019-06-10T04:04:23.377Z,67.93
2019-06-10T04:05:22.654Z,68.44
2019-06-10T04:06:21.461Z,68.54
2019-06-10T04:07:24.119Z,68.54
2019-06-10T04:08:22.414Z,68.64
2019-06-10T04:09:22.659Z,69.04
2019-06-10T04:10:20.178Z,69.24
2019-06-10T04:11:22.530Z,69.15
2019-06-10T04:12:20.170Z,69.15
2019-06-10T04:13:22.687Z,69.15
2019-06-10T04:14:22.416Z,69.35
2019-06-10T04:15:23.146Z,68.84
2019-06-10T04:16:22.280Z,68.04
2019-06-10T04:17:22.350Z,68.04
2019-06-10T04:18:20.089Z,68.10
2019-06-10T04:19:22.277Z,68.44
2019-06-10T04:20:23.059Z,68.13
2019-06-10T04:21:22.326Z,67.93
2019-06-10T04:22:22.320Z,68.04
2019-06-10T04:23:22.707Z,68.41
2019-06-10T04:24:22.284Z,68.21
2019-06-10T04:25:23.195Z,67.60
2019-06-10T04:26:24.087Z,67.10
2019-06-10T04:27:22.330Z,67.30
2019-06-10T04:28:19.977Z,67.60
2019-06-10T04:29:22.581Z,67.19
2019-06-10T04:30:20.123Z,67.30
2019-06-10T04:31:21.271Z,67.30
2019-06-10T04:32:20.266Z,66.99
2019-06-10T04:33:20.878Z,66.59
2019-06-10T04:34:20.476Z,67.10
2019-06-10T04:35:20.992Z,66.79
2019-06-10T04:36:21.029Z,66.89
2019-06-10T04:37:20.381Z,66.46
2019-06-10T04:38:22.954Z,66.76
2019-06-10T04:39:20.506Z,66.05
2019-06-10T04:40:21.087Z,66.56
2019-06-10T04:41:20.473Z,66.36
2019-06-10T04:42:20.903Z,66.16
2019-06-10T04:43:20.425Z,66.25
2019-06-10T04:44:21.218Z,66.22
2019-06-10T04:45:21.202Z,65.45
2019-06-10T04:46:22.826Z,66.36
2019-06-10T04:47:21.372Z,66.25
2019-06-10T04:48:21.213Z,65.92
2019-06-10T04:49:21.374Z,66.13
2019-06-10T04:50:30.202Z,65.32
2019-06-10T04:51:23.365Z,65.92
2019-06-10T04:52:21.240Z,66.13
2019-06-10T04:53:22.872Z,66.22
2019-06-10T04:54:21.372Z,66.02
2019-06-10T04:55:23.138Z,65.82
2019-06-10T04:56:19.756Z,65.49
2019-06-10T04:57:20.767Z,65.69
2019-06-10T04:58:21.519Z,65.49
2019-06-10T04:59:20.827Z,65.49
2019-06-10T05:00:21.309Z,65.09
2019-06-10T05:01:20.959Z,65.39
2019-06-10T05:02:22.323Z,65.49
2019-06-10T05:03:21.536Z,65.36
2019-06-10T05:04:20.952Z,65.59
2019-06-10T05:05:20.746Z,65.56
2019-06-10T05:06:19.581Z,65.16
2019-06-10T05:07:19.597Z,65.36
2019-06-10T05:08:19.544Z,65.59
2019-06-10T05:09:19.562Z,65.56
2019-06-10T05:10:19.519Z,65.56
2019-06-10T05:11:19.524Z,65.36
2019-06-10T05:12:19.499Z,65.46
2019-06-10T05:13:19.530Z,65.86
2019-06-10T05:14:22.344Z,65.76
2019-06-10T05:15:19.643Z,65.76
2019-06-10T05:16:19.645Z,65.89
2019-06-10T05:17:19.494Z,65.06
2019-06-10T05:18:19.567Z,65.06
2019-06-10T05:19:19.823Z,65.06
2019-06-10T05:20:19.796Z,64.86
2019-06-10T05:21:19.697Z,64.35
2019-06-10T05:22:19.645Z,64.35
2019-06-10T05:23:19.671Z,64.45
2019-06-10T05:24:19.754Z,64.25
2019-06-10T05:25:20.367Z,64.45
2019-06-10T05:26:20.030Z,63.82
2019-06-10T05:27:20.438Z,63.82
2019-06-10T05:28:19.955Z,63.42
2019-06-10T05:29:20.180Z,63.82
2019-06-10T05:30:20.027Z,63.39
2019-06-10T05:31:20.224Z,63.28
2019-06-10T05:32:20.790Z,64.19
2019-06-10T05:33:20.782Z,64.49
2019-06-10T05:34:20.404Z,63.28
2019-06-10T05:35:20.474Z,63.85
2019-06-10T05:36:20.559Z,63.89
2019-06-10T05:37:19.224Z,64.16
2019-06-10T05:38:19.240Z,64.06
2019-06-10T05:39:19.238Z,63.79
2019-06-10T05:40:19.249Z,63.35
2019-06-10T05:41:19.241Z,64.06
2019-06-10T05:42:19.176Z,63.15
2019-06-10T05:43:19.165Z,63.42
2019-06-10T05:44:19.170Z,63.96
2019-06-10T05:45:19.135Z,63.56
2019-06-10T05:46:19.129Z,63.79
2019-06-10T05:47:19.154Z,64.29
2019-06-10T05:48:19.098Z,64.39
2019-06-10T05:49:19.102Z,63.99
2019-06-10T05:50:19.097Z,63.99
2019-06-10T05:51:19.071Z,63.96
2019-06-10T05:52:19.134Z,63.25
2019-06-10T05:53:19.052Z,63.56
2019-06-10T05:54:19.029Z,63.45
2019-06-10T05:55:19.018Z,63.45
2019-06-10T05:56:19.055Z,63.73
2019-06-10T05:57:18.998Z,64.33
2019-06-10T05:58:19.194Z,64.46
2019-06-10T05:59:18.979Z,64.33
2019-06-10T06:00:18.972Z,64.33
2019-06-10T06:01:18.952Z,64.33
2019-06-10T06:02:18.944Z,63.62
2019-06-10T06:03:18.928Z,63.32
2019-06-10T06:04:19.117Z,63.90
2019-06-10T06:05:18.957Z,64.40
2019-06-10T06:06:18.926Z,62.99
2019-06-10T06:07:18.889Z,62.89
2019-06-10T06:08:18.876Z,62.89
2019-06-10T06:09:18.868Z,63.09
2019-06-10T06:10:18.921Z,63.19
2019-06-10T06:11:18.878Z,63.09
2019-06-10T06:12:18.837Z,62.79
2019-06-10T06:13:18.817Z,62.99
2019-06-10T06:14:18.833Z,62.99
2019-06-10T06:15:18.848Z,62.79
2019-06-10T06:16:18.792Z,63.09
2019-06-10T06:17:18.776Z,62.99
2019-06-10T06:18:18.775Z,62.89
2019-06-10T06:19:18.777Z,62.59
2019-06-10T06:20:18.790Z,62.76
2019-06-10T06:21:26.674Z,61.86
2019-06-10T06:22:21.989Z,61.96
2019-06-10T06:23:18.763Z,61.86
2019-06-10T06:24:18.701Z,61.96
2019-06-10T06:25:18.727Z,61.96
2019-06-10T06:26:18.703Z,62.06
2019-06-10T06:27:18.685Z,62.76
2019-06-10T06:28:18.700Z,62.46
2019-06-10T06:29:18.691Z,62.06
2019-06-10T06:30:19.038Z,61.79
2019-06-10T06:31:18.625Z,62.06
2019-06-10T06:32:18.622Z,62.06
2019-06-10T06:33:18.647Z,61.99
2019-06-10T06:34:18.631Z,62.06
2019-06-10T06:35:18.582Z,62.06
2019-06-10T06:36:18.566Z,62.23
2019-06-10T06:37:18.548Z,62.23
2019-06-10T06:38:18.552Z,62.43
2019-06-10T06:39:18.526Z,62.00
2019-06-10T06:40:18.553Z,62.20
2019-06-10T06:41:18.516Z,62.00
2019-06-10T06:42:18.504Z,62.00
2019-06-10T06:43:18.549Z,61.67
2019-06-10T06:44:18.473Z,60.06
2019-06-10T06:45:18.506Z,59.77
2019-06-10T06:46:18.529Z,59.16
2019-06-10T06:47:18.433Z,59.16
2019-06-10T06:48:18.445Z,58.16
2019-06-10T06:49:18.453Z,58.46
2019-06-10T06:50:18.447Z,57.93
2019-06-10T06:51:33.587Z,57.73
2019-06-10T06:52:35.369Z,57.93
2019-06-10T06:53:29.994Z,57.70
2019-06-10T06:54:19.353Z,58.11
2019-06-10T06:55:18.394Z,57.80
2019-06-10T06:56:18.391Z,58.30
2019-06-10T06:57:18.321Z,58.73
2019-06-10T06:58:18.324Z,58.83
2019-06-10T06:59:18.313Z,58.73
2019-06-10T07:00:40.904Z,58.73
2019-06-10T07:01:22.588Z,59.03
2019-06-10T07:02:19.262Z,59.23
2019-06-10T07:03:18.286Z,59.13
2019-06-10T07:04:18.257Z,59.23
2019-06-10T07:05:18.238Z,59.13
2019-06-10T07:06:18.219Z,59.33
2019-06-10T07:07:18.258Z,59.00
2019-06-10T07:08:18.200Z,58.70
2019-06-10T07:09:18.198Z,58.91
2019-06-10T07:10:18.214Z,58.98
2019-06-10T07:11:18.210Z,59.00
2019-06-10T07:12:18.152Z,58.91
2019-06-10T07:13:18.145Z,58.87
2019-06-10T07:14:18.128Z,58.68
2019-06-10T07:15:18.119Z,58.87
2019-06-10T07:16:18.173Z,58.68
2019-06-10T07:17:18.110Z,58.28
2019-06-10T07:18:18.253Z,58.58
2019-06-10T07:19:18.155Z,58.37
2019-06-10T07:20:18.065Z,58.25
2019-06-10T07:21:18.063Z,58.05
2019-06-10T07:22:18.104Z,58.25
2019-06-10T07:23:18.042Z,57.75
2019-06-10T07:24:18.087Z,57.85
2019-06-10T07:25:18.016Z,57.75
2019-06-10T07:26:17.997Z,57.72
2019-06-10T07:27:18.036Z,57.75
2019-06-10T07:28:18.005Z,57.85
2019-06-10T07:29:17.965Z,57.52
2019-06-10T07:30:17.964Z,57.45
2019-06-10T07:31:23.989Z,57.42
2019-06-10T07:32:18.996Z,57.52
2019-06-10T07:33:17.915Z,57.50
2019-06-10T07:34:17.957Z,57.19
2019-06-10T07:35:17.938Z,57.07
2019-06-10T07:36:17.936Z,56.67
2019-06-10T07:37:17.877Z,56.67
2019-06-10T07:38:17.863Z,56.64
2019-06-10T07:39:17.846Z,56.44
2019-06-10T07:40:17.897Z,56.14
2019-06-10T07:41:17.836Z,55.94
2019-06-10T07:42:17.879Z,56.34
2019-06-10T07:43:17.808Z,56.14
2019-06-10T07:44:17.805Z,56.74
2019-06-10T07:45:17.781Z,55.94
2019-06-10T07:46:17.779Z,56.54
2019-06-10T07:47:17.765Z,57.67
2019-06-10T07:48:17.798Z,57.44
2019-06-10T07:49:17.742Z,57.04
2019-06-10T07:50:17.774Z,56.31
2019-06-10T07:51:17.718Z,56.21
2019-06-10T07:52:19.892Z,56.74
2019-06-10T07:53:17.692Z,57.26
2019-06-10T07:54:17.687Z,57.46
2019-06-10T07:55:17.668Z,57.87
2019-06-10T07:56:17.720Z,58.17
2019-06-10T07:57:17.655Z,57.87
2019-06-10T07:58:17.688Z,58.06
2019-06-10T07:59:17.627Z,58.17
2019-06-10T08:00:17.628Z,58.06
2019-06-10T08:01:17.627Z,58.09
2019-06-10T08:02:17.605Z,58.06
2019-06-10T08:03:17.587Z,57.93
2019-06-10T08:04:17.624Z,57.54
2019-06-10T08:05:17.570Z,57.14
2019-06-10T08:06:17.554Z,57.01
2019-06-10T08:07:17.548Z,57.01
2019-06-10T08:08:17.536Z,57.11
2019-06-10T08:09:17.564Z,57.11
2019-06-10T08:10:17.521Z,57.54
2019-06-10T08:11:17.552Z,57.41
2019-06-10T08:12:17.547Z,57.84
2019-06-10T08:13:17.503Z,57.93
2019-06-10T08:14:17.504Z,58.54
2019-06-10T08:15:17.463Z,58.26
2019-06-10T08:16:17.644Z,58.47
2019-06-10T08:17:17.452Z,58.84
2019-06-10T08:18:17.427Z,58.34
2019-06-10T08:19:30.171Z,58.34
2019-06-10T08:20:18.428Z,58.34
2019-06-10T08:21:17.392Z,57.93
2019-06-10T08:22:31.325Z,57.84
2019-06-10T08:23:18.422Z,58.14
2019-06-10T08:24:17.358Z,58.24
2019-06-10T08:25:17.346Z,58.14
2019-06-10T08:26:17.331Z,57.74
2019-06-10T08:27:17.374Z,58.24
2019-06-10T08:28:17.341Z,58.04
2019-06-10T08:29:17.306Z,58.44
2019-06-10T08:30:22.812Z,58.84
2019-06-10T08:31:18.279Z,58.54
2019-06-10T08:32:17.317Z,58.14
2019-06-10T08:33:17.295Z,58.54
2019-06-10T08:34:17.247Z,58.64
2019-06-10T08:35:17.253Z,58.73
2019-06-10T08:36:17.245Z,58.31
2019-06-10T08:37:17.278Z,58.21
2019-06-10T08:38:17.212Z,58.41
2019-06-10T08:39:17.208Z,58.51
2019-06-10T08:40:17.192Z,58.18
2019-06-10T08:41:17.183Z,57.98
2019-06-10T08:42:17.152Z,57.78
2019-06-10T08:43:17.223Z,57.48
2019-06-10T08:44:17.132Z,57.15
2019-06-10T08:45:17.168Z,56.85
2019-06-10T08:46:17.128Z,57.43
2019-06-10T08:47:17.125Z,56.93
2019-06-10T08:48:17.123Z,57.76
2019-06-10T08:49:17.140Z,57.56
2019-06-10T08:50:17.129Z,57.78
2019-06-10T08:51:17.061Z,57.46
2019-06-10T08:52:17.046Z,57.35
2019-06-10T08:53:18.204Z,57.15
2019-06-10T08:54:17.028Z,56.83
2019-06-10T08:55:17.069Z,57.03
2019-06-10T08:56:16.999Z,56.73
2019-06-10T08:57:17.020Z,56.23
2019-06-10T08:58:17.026Z,56.03
2019-06-10T08:59:16.979Z,56.13
2019-06-10T09:00:18.770Z,56.53
2019-06-10T09:01:16.964Z,55.73
2019-06-10T09:02:16.982Z,56.51
2019-06-10T09:03:16.927Z,56.10
2019-06-10T09:04:16.937Z,55.58
2019-06-10T09:05:16.924Z,55.28
2019-06-10T09:06:16.968Z,55.18
2019-06-10T09:07:16.916Z,54.96
2019-06-10T09:08:16.873Z,55.05
2019-06-10T09:09:16.866Z,55.03
2019-06-10T09:10:16.863Z,54.75
2019-06-10T09:11:20.289Z,55.16
2019-06-10T09:12:28.696Z,54.58
2019-06-10T09:13:17.814Z,55.08
2019-06-10T09:14:16.810Z,55.48
2019-06-10T09:15:16.857Z,55.48
2019-06-10T09:16:19.500Z,55.55
2019-06-10T09:17:16.783Z,55.26
2019-06-10T09:18:19.999Z,55.16
2019-06-10T09:19:17.749Z,56.05
2019-06-10T09:20:16.741Z,55.35
2019-06-10T09:21:16.784Z,56.08
2019-06-10T09:22:16.722Z,56.57
2019-06-10T09:23:22.173Z,56.27
2019-06-10T09:24:17.782Z,56.08
2019-06-10T09:25:16.693Z,55.85
2019-06-10T09:26:16.712Z,55.35
2019-06-10T09:27:16.669Z,55.13
2019-06-10T09:28:16.726Z,55.46
2019-06-10T09:29:16.641Z,55.43
2019-06-10T09:30:16.847Z,55.63
2019-06-10T09:31:16.616Z,55.23
2019-06-10T09:32:18.335Z,54.93
2019-06-10T09:33:16.599Z,54.53
2019-06-10T09:34:16.668Z,54.73
2019-06-10T09:35:16.655Z,54.73
2019-06-10T09:36:16.597Z,54.53
2019-06-10T09:37:16.562Z,55.00
2019-06-10T09:38:16.745Z,54.71
2019-06-10T09:39:16.556Z,54.90
2019-06-10T09:40:16.572Z,55.20
2019-06-10T09:41:16.548Z,55.00
2019-06-10T09:42:16.532Z,55.10
2019-06-10T09:43:16.526Z,53.81
2019-06-10T09:44:16.497Z,53.19
2019-06-10T09:45:16.515Z,53.26
2019-06-10T09:46:16.471Z,53.53
2019-06-10T09:47:16.446Z,53.04
2019-06-10T09:48:16.447Z,52.81
2019-06-10T09:49:16.425Z,52.51
2019-06-10T09:50:16.427Z,51.52
2019-06-10T09:51:16.720Z,52.12
2019-06-10T09:52:16.400Z,52.51
2019-06-10T09:53:26.674Z,51.79
2019-06-10T09:54:17.437Z,51.40
2019-06-10T09:55:16.368Z,51.37
2019-06-10T09:56:16.383Z,51.28
2019-06-10T09:57:16.350Z,50.65
2019-06-10T09:58:16.333Z,51.07
2019-06-10T09:59:16.313Z,50.95
2019-06-10T10:00:16.339Z,51.15
2019-06-10T10:01:16.296Z,50.56
2019-06-10T10:02:16.274Z,50.65
2019-06-10T10:03:16.268Z,49.94
2019-06-10T10:04:16.262Z,49.62
2019-06-10T10:05:16.248Z,49.02
2019-06-10T10:06:16.358Z,49.34
2019-06-10T10:07:16.239Z,49.71
2019-06-10T10:08:16.208Z,49.54
2019-06-10T10:09:16.227Z,49.71
2019-06-10T10:10:16.198Z,48.92
2019-06-10T10:11:16.348Z,49.29
2019-06-10T10:12:16.176Z,49.29
2019-06-10T10:13:16.173Z,49.19
2019-06-10T10:14:16.238Z,48.97
2019-06-10T10:15:29.728Z,48.46
2019-06-10T10:16:17.140Z,47.66
2019-06-10T10:17:16.126Z,47.77
2019-06-10T10:18:16.167Z,47.78
2019-06-10T10:19:16.096Z,47.96
2019-06-10T10:20:16.139Z,48.36
2019-06-10T10:21:16.116Z,49.07
2019-06-10T10:22:16.074Z,48.90
2019-06-10T10:23:16.058Z,49.32
2019-06-10T10:24:16.047Z,49.44
2019-06-10T10:25:16.022Z,49.84
2019-06-10T10:26:16.363Z,49.54
2019-06-10T10:27:16.007Z,50.04
2019-06-10T10:28:16.014Z,50.46
2019-06-10T10:29:15.983Z,50.83
2019-06-10T10:30:15.973Z,50.43
2019-06-10T10:31:15.968Z,49.84
2019-06-10T10:32:16.342Z,49.42
2019-06-10T10:33:15.947Z,48.80
2019-06-10T10:34:15.927Z,48.40
2019-06-10T10:35:15.912Z,48.38
2019-06-10T10:36:15.916Z,48.38
2019-06-10T10:37:15.941Z,47.37
2019-06-10T10:38:15.891Z,47.69
2019-06-10T10:39:15.876Z,47.17
2019-06-10T10:40:15.881Z,47.39
2019-06-10T10:41:15.913Z,46.70
2019-06-10T10:42:15.837Z,46.67
2019-06-10T10:43:27.505Z,46.38
2019-06-10T10:44:16.823Z,46.16
2019-06-10T10:45:15.812Z,45.39
2019-06-10T10:46:15.797Z,45.47
2019-06-10T10:47:15.798Z,45.68
2019-06-10T10:48:15.821Z,47.19
2019-06-10T10:49:15.762Z,47.39
2019-06-10T10:50:15.780Z,46.80
2019-06-10T10:51:15.769Z,46.97
2019-06-10T10:52:15.739Z,46.95
2019-06-10T10:53:15.749Z,46.55
2019-06-10T10:54:28.627Z,46.26
2019-06-10T10:55:16.709Z,46.14
2019-06-10T10:56:15.706Z,45.42
2019-06-10T10:57:15.680Z,44.81
2019-06-10T10:58:15.664Z,44.24
2019-06-10T10:59:15.668Z,44.34
2019-06-10T11:00:15.698Z,44.24
2019-06-10T11:01:16.360Z,46.06
2019-06-10T11:02:15.736Z,46.38
2019-06-10T11:03:15.617Z,45.68
2019-06-10T11:04:15.606Z,45.59
2019-06-10T11:05:15.595Z,45.39
2019-06-10T11:06:15.615Z,45.79
2019-06-10T11:07:15.668Z,45.67
2019-06-10T11:08:15.624Z,46.06
2019-06-10T11:09:15.551Z,45.67
2019-06-10T11:10:15.536Z,45.86
2019-06-10T11:11:15.527Z,46.16
2019-06-10T11:12:15.527Z,46.16
2019-06-10T11:13:15.579Z,46.26
2019-06-10T11:14:15.552Z,45.54
2019-06-10T11:15:15.509Z,44.83
2019-06-10T11:16:15.478Z,46.04
2019-06-10T11:17:15.529Z,45.57
2019-06-10T11:18:15.455Z,45.89
2019-06-10T11:19:15.480Z,47.07
2019-06-10T11:20:15.453Z,47.27
2019-06-10T11:21:15.424Z,47.37
2019-06-10T11:22:15.470Z,47.27
2019-06-10T11:23:16.097Z,46.78
2019-06-10T11:24:32.460Z,46.08
2019-06-10T11:25:16.385Z,46.06
2019-06-10T11:26:15.365Z,46.26
2019-06-10T11:27:15.367Z,46.33
2019-06-10T11:28:15.394Z,45.25
2019-06-10T11:29:15.341Z,44.43
2019-06-10T11:30:15.353Z,45.32
2019-06-10T11:31:15.330Z,44.61
2019-06-10T11:32:15.318Z,45.79
2019-06-10T11:33:15.920Z,44.54
2019-06-10T11:34:15.332Z,46.01
2019-06-10T11:35:15.271Z,46.04
2019-06-10T11:36:15.268Z,45.72
2019-06-10T11:37:15.251Z,45.74
2019-06-10T11:38:15.285Z,46.26
2019-06-10T11:39:15.234Z,45.96
2019-06-10T11:40:15.251Z,46.36
2019-06-10T11:41:15.220Z,46.48
2019-06-10T11:42:15.246Z,46.28
2019-06-10T11:43:15.198Z,46.08
2019-06-10T11:44:15.199Z,46.70
2019-06-10T11:45:15.197Z,47.71
2019-06-10T11:46:15.172Z,48.13
2019-06-10T11:47:15.157Z,47.74
2019-06-10T11:48:15.178Z,47.53
2019-06-10T11:49:15.137Z,48.55
2019-06-10T11:50:15.159Z,48.67
2019-06-10T11:51:15.163Z,49.29
2019-06-10T11:52:15.097Z,49.46
2019-06-10T11:53:15.082Z,49.07
2019-06-10T11:54:15.065Z,49.27
2019-06-10T11:55:19.076Z,49.07
2019-06-10T11:56:15.089Z,48.85
2019-06-10T11:57:15.046Z,49.15
2019-06-10T11:58:15.032Z,49.37
2019-06-10T11:59:15.055Z,49.07
2019-06-10T12:00:17.459Z,48.69
2019-06-10T12:01:15.033Z,48.60
2019-06-10T12:02:14.989Z,49.11
2019-06-10T12:03:14.966Z,50.33
2019-06-10T12:04:14.984Z,50.43
2019-06-10T12:05:14.973Z,51.05
2019-06-10T12:06:14.944Z,50.75
2019-06-10T12:07:14.978Z,50.73
2019-06-10T12:08:14.915Z,50.31
2019-06-10T12:09:14.970Z,48.80
2019-06-10T12:10:14.895Z,49.07
2019-06-10T12:11:14.886Z,48.65
2019-06-10T12:12:14.872Z,48.63
2019-06-10T12:13:14.895Z,47.34
2019-06-10T12:14:15.018Z,47.24
2019-06-10T12:15:14.857Z,47.63
2019-06-10T12:17:12.227Z,47.34
2019-06-10T12:17:30.840Z,47.12
2019-06-10T12:18:15.856Z,47.02
2019-06-10T12:19:14.845Z,47.24
2019-06-10T12:20:14.803Z,46.55
2019-06-10T12:21:14.818Z,47.06
2019-06-10T12:22:14.817Z,46.77
2019-06-10T12:23:14.752Z,47.34
2019-06-10T12:24:14.785Z,46.55
2019-06-10T12:25:31.647Z,46.52
2019-06-10T12:26:15.719Z,47.02
2019-06-10T12:27:14.710Z,46.84
2019-06-10T12:28:14.813Z,46.55
2019-06-10T12:29:14.693Z,46.25
2019-06-10T12:30:14.697Z,45.85
2019-06-10T12:31:15.147Z,46.12
2019-06-10T12:32:14.769Z,45.31
2019-06-10T12:33:21.376Z,45.00
2019-06-10T12:34:15.681Z,44.28
2019-06-10T12:35:14.627Z,43.96
2019-06-10T12:36:15.116Z,42.66
2019-06-10T12:37:15.957Z,42.93
2019-06-10T12:38:14.630Z,42.83
2019-06-10T12:39:17.135Z,43.84
2019-06-10T12:40:14.570Z,44.36
2019-06-10T12:41:14.564Z,44.58
2019-06-10T12:42:14.609Z,44.58
2019-06-10T12:43:14.547Z,44.68
2019-06-10T12:44:14.524Z,44.16
2019-06-10T12:45:14.580Z,44.56
2019-06-10T12:46:14.875Z,44.68
2019-06-10T12:47:14.848Z,44.68
2019-06-10T12:48:14.500Z,44.48
2019-06-10T12:49:18.280Z,44.68
2019-06-10T12:50:14.467Z,44.68
2019-06-10T12:51:14.456Z,44.09
2019-06-10T12:52:14.447Z,45.29